Time;durP1;ratioP1;P1;durP2;ratioP2;P2;SDS_P1;SDS_P2;PMS_P1;PMS_P2;Temp;Humidity;BMP_temperature;BMP_pressure;BME280_temperature;BME280_humidity;BME280_pressure;Samples;Min_cycle;Max_cycle;Signal;HPM_P1;HPM_P2
2021/09/22 00:02:00;;;;;;;14.60;13.07;;;8.80;99.90;;;;;;5057704;28;20583;-45
2021/09/22 00:04:26;;;;;;;14.07;12.60;;;8.80;99.90;;;;;;5057272;28;20189;-45
2021/09/22 00:06:51;;;;;;;13.20;11.80;;;8.70;99.90;;;;;;5039809;28;20182;-46
2021/09/22 00:09:17;;;;;;;14.60;13.10;;;8.70;99.90;;;;;;5057333;28;20217;-45
2021/09/22 00:11:43;;;;;;;15.23;12.83;;;8.70;99.90;;;;;;5057094;28;20549;-46
2021/09/22 00:14:08;;;;;;;14.30;12.30;;;8.70;99.90;;;;;;5057360;28;20242;-46
2021/09/22 00:16:34;;;;;;;14.47;13.07;;;8.70;99.90;;;;;;5057777;28;20166;-46
2021/09/22 00:19:00;;;;;;;12.30;11.10;;;8.60;99.90;;;;;;5057547;28;20180;-45
2021/09/22 00:21:25;;;;;;;13.30;11.90;;;8.60;99.90;;;;;;5057176;28;20217;-45
2021/09/22 00:23:51;;;;;;;15.57;13.03;;;8.60;99.90;;;;;;5057555;28;20201;-46
2021/09/22 00:26:16;;;;;;;14.07;12.67;;;8.50;99.90;;;;;;5057076;28;20190;-45
2021/09/22 00:28:42;;;;;;;15.83;13.53;;;8.50;99.90;;;;;;5057471;28;20232;-45
2021/09/22 00:31:09;;;;;;;14.67;13.17;;;8.50;99.90;;;;;;5057149;28;20272;-45
2021/09/22 00:33:34;;;;;;;16.33;12.77;;;8.40;99.90;;;;;;5057129;28;20865;-46
2021/09/22 00:36:00;;;;;;;17.10;14.13;;;8.40;99.90;;;;;;5056774;28;20553;-45
2021/09/22 00:38:26;;;;;;;14.03;12.63;;;8.50;99.90;;;;;;5057091;28;20189;-45
2021/09/22 00:40:51;;;;;;;14.05;12.57;;;8.40;99.90;;;;;;5057140;28;20178;-45
2021/09/22 00:43:17;;;;;;;14.33;11.67;;;8.40;99.90;;;;;;5056906;28;20197;-45
2021/09/22 00:45:43;;;;;;;14.10;12.70;;;8.40;99.90;;;;;;5057334;28;20187;-46
2021/09/22 00:48:09;;;;;;;13.60;11.70;;;8.50;99.90;;;;;;5056603;28;20432;-45
2021/09/22 00:50:35;;;;;;;13.93;12.60;;;8.40;99.90;;;;;;5057299;28;20468;-45
2021/09/22 00:53:01;;;;;;;14.40;13.00;;;8.40;99.90;;;;;;5057569;28;20173;-45
2021/09/22 00:55:26;;;;;;;14.70;13.20;;;8.40;99.90;;;;;;5039764;28;20495;-45
2021/09/22 00:57:54;;;;;;;15.20;12.73;;;8.40;99.90;;;;;;5057083;28;20188;-45
2021/09/22 01:00:22;;;;;;;14.83;12.53;;;8.40;99.90;;;;;;5039941;28;20178;-45
2021/09/22 01:02:48;;;;;;;14.80;13.20;;;8.40;99.90;;;;;;5057309;28;20428;-45
2021/09/22 01:05:15;;;;;;;13.97;12.60;;;8.30;99.90;;;;;;5056850;28;20527;-46
2021/09/22 01:07:41;;;;;;;14.10;12.60;;;8.30;99.90;;;;;;5057393;28;20421;-45
2021/09/22 01:10:07;;;;;;;14.10;12.70;;;8.30;99.90;;;;;;5056912;28;20971;-45
2021/09/22 01:12:32;;;;;;;14.60;12.43;;;8.30;99.90;;;;;;5056802;28;20275;-46
2021/09/22 01:14:58;;;;;;;13.13;11.83;;;8.30;99.90;;;;;;5056791;28;20444;-46
2021/09/22 01:17:26;;;;;;;13.30;11.90;;;8.30;99.90;;;;;;5057080;28;20174;-46
2021/09/22 01:20:30;;;;;;;13.80;11.67;;;8.30;99.90;;;;;;5057045;28;20484;-45
2021/09/22 01:22:57;;;;;;;13.00;11.80;;;8.30;99.90;;;;;;5058736;28;20432;-46
2021/09/22 01:25:23;;;;;;;13.13;11.80;;;8.30;99.90;;;;;;5060735;28;20671;-45
2021/09/22 01:28:00;;;;;;;13.37;11.97;;;8.30;99.90;;;;;;5060784;28;20505;-45
2021/09/22 01:30:26;;;;;;;13.40;12.00;;;8.20;99.90;;;;;;5060965;28;20476;-45
2021/09/22 01:32:54;;;;;;;13.83;12.40;;;8.20;99.90;;;;;;5060685;28;20714;-45
2021/09/22 01:35:20;;;;;;;12.53;11.33;;;8.20;99.90;;;;;;5060649;28;20470;-45
2021/09/22 01:37:47;;;;;;;14.87;13.03;;;8.20;99.90;;;;;;5061126;28;20928;-45
2021/09/22 01:40:12;;;;;;;12.47;11.17;;;8.20;99.90;;;;;;5060544;28;20413;-45
2021/09/22 01:42:38;;;;;;;13.13;11.73;;;8.20;99.90;;;;;;5060380;28;20699;-46
2021/09/22 01:45:06;;;;;;;14.67;13.23;;;8.20;99.90;;;;;;5060553;28;20709;-45
2021/09/22 01:47:32;;;;;;;14.40;12.90;;;8.20;99.90;;;;;;5060596;28;20174;-46
2021/09/22 01:50:06;;;;;;;12.73;11.53;;;8.10;99.90;;;;;;5060742;28;20534;-45
2021/09/22 01:52:32;;;;;;;14.27;12.87;;;8.10;99.90;;;;;;5060782;28;20280;-45
2021/09/22 01:54:58;;;;;;;13.97;12.07;;;8.10;99.90;;;;;;5060540;28;20811;-45
2021/09/22 01:57:23;;;;;;;14.03;12.53;;;8.10;99.90;;;;;;5060210;28;20427;-45
2021/09/22 01:59:50;;;;;;;13.20;11.97;;;8.10;99.90;;;;;;5060383;28;20738;-46
2021/09/22 02:02:16;;;;;;;13.60;12.23;;;8.00;99.90;;;;;;5060282;28;20470;-46
2021/09/22 02:04:41;;;;;;;12.77;11.57;;;8.00;99.90;;;;;;5060278;28;20427;-45
2021/09/22 02:07:07;;;;;;;14.90;13.40;;;8.00;99.90;;;;;;5060153;28;20417;-45
2021/09/22 02:09:32;;;;;;;15.70;12.30;;;8.00;99.90;;;;;;5060342;28;20202;-45
2021/09/22 02:11:58;;;;;;;15.70;12.80;;;8.00;99.90;;;;;;5060167;28;20212;-46
2021/09/22 02:14:24;;;;;;;13.57;12.17;;;8.00;99.90;;;;;;5060243;28;20182;-45
2021/09/22 02:16:49;;;;;;;13.37;11.97;;;8.00;99.90;;;;;;5042846;28;20179;-45
2021/09/22 02:19:15;;;;;;;13.30;11.90;;;7.90;99.90;;;;;;5059985;28;20239;-46
2021/09/22 02:21:41;;;;;;;15.30;13.40;;;7.90;99.90;;;;;;5059395;28;20576;-46
2021/09/22 02:24:06;;;;;;;15.43;13.20;;;7.90;99.90;;;;;;5060034;28;20243;-45
2021/09/22 02:26:32;;;;;;;14.40;12.90;;;7.90;99.90;;;;;;5060096;28;20239;-46
2021/09/22 02:28:57;;;;;;;15.60;14.00;;;7.80;99.90;;;;;;5059611;28;20547;-46
2021/09/22 02:31:23;;;;;;;13.60;12.20;;;7.80;99.90;;;;;;5059764;28;20194;-46
2021/09/22 02:33:49;;;;;;;14.50;13.10;;;7.80;99.90;;;;;;5058887;28;20244;-45
2021/09/22 02:36:14;;;;;;;13.63;12.23;;;7.80;99.90;;;;;;5059651;28;20186;-46
2021/09/22 02:38:40;;;;;;;14.00;12.43;;;7.70;99.90;;;;;;5060024;28;20244;-45
2021/09/22 02:41:06;;;;;;;13.53;12.13;;;7.70;99.90;;;;;;5059463;28;20553;-46
2021/09/22 02:43:31;;;;;;;14.33;12.90;;;7.70;99.90;;;;;;5059795;28;20267;-46
2021/09/22 02:45:57;;;;;;;13.57;12.10;;;7.70;99.90;;;;;;5059979;28;20427;-46
2021/09/22 02:48:23;;;;;;;13.93;12.47;;;7.70;99.90;;;;;;5059392;28;20548;-46
2021/09/22 02:50:48;;;;;;;15.70;13.33;;;7.70;99.90;;;;;;5059080;28;20197;-45
2021/09/22 02:53:14;;;;;;;14.50;13.00;;;7.70;99.90;;;;;;5059279;28;20178;-46
2021/09/22 02:55:42;;;;;;;14.03;12.53;;;7.70;99.90;;;;;;5041588;28;20696;-45
2021/09/22 02:58:07;;;;;;;13.97;12.47;;;7.70;99.90;;;;;;5058998;28;20189;-46
2021/09/22 03:00:33;;;;;;;14.70;13.20;;;7.70;99.90;;;;;;5059283;28;20419;-46
2021/09/22 03:02:59;;;;;;;15.40;13.90;;;7.70;99.90;;;;;;5059190;28;20190;-49
2021/09/22 03:05:24;;;;;;;14.57;13.00;;;7.70;99.90;;;;;;5059217;28;20187;-46
2021/09/22 03:07:50;;;;;;;15.37;13.80;;;7.70;99.90;;;;;;5059311;28;20175;-45
2021/09/22 03:10:19;;;;;;;16.30;14.07;;;7.70;99.90;;;;;;5059054;28;20202;-45
2021/09/22 03:12:45;;;;;;;14.77;13.27;;;7.70;99.90;;;;;;5058681;28;20472;-45
2021/09/22 03:15:11;;;;;;;15.47;14.03;;;7.70;99.90;;;;;;5041386;28;20416;-46
2021/09/22 03:17:36;;;;;;;13.83;12.43;;;7.70;99.90;;;;;;5059007;28;20432;-46
2021/09/22 03:20:03;;;;;;;13.00;11.60;;;7.70;99.90;;;;;;5059127;28;20412;-46
2021/09/22 03:22:29;;;;;;;14.17;12.80;;;7.60;99.90;;;;;;5041061;28;20587;-45
2021/09/22 03:24:54;;;;;;;12.63;11.33;;;7.60;99.90;;;;;;5040422;28;20408;-46
2021/09/22 03:27:20;;;;;;;14.50;13.00;;;7.60;99.90;;;;;;5058070;28;20432;-45
2021/09/22 03:29:46;;;;;;;14.17;12.17;;;7.60;99.90;;;;;;5057752;28;20284;-45
2021/09/22 03:32:11;;;;;;;14.17;12.00;;;7.60;99.90;;;;;;5057843;28;20178;-45
2021/09/22 03:34:37;;;;;;;14.10;12.60;;;7.60;99.90;;;;;;5057613;28;20491;-46
2021/09/22 03:37:03;;;;;;;13.20;11.83;;;7.60;99.90;;;;;;5057337;28;20189;-45
2021/09/22 03:39:29;;;;;;;14.40;12.13;;;7.60;99.90;;;;;;5057941;28;20564;-45
2021/09/22 03:41:54;;;;;;;13.20;11.80;;;7.60;99.90;;;;;;5057488;28;20186;-45
2021/09/22 03:44:20;;;;;;;15.27;13.67;;;7.60;99.90;;;;;;5056159;28;20174;-45
2021/09/22 03:46:46;;;;;;;14.73;13.10;;;7.50;99.90;;;;;;5054821;28;20535;-46
2021/09/22 03:49:12;;;;;;;15.60;13.17;;;7.50;99.90;;;;;;5055791;28;20175;-46
2021/09/22 03:51:37;;;;;;;14.17;12.67;;;7.50;99.90;;;;;;5055759;28;20751;-46
2021/09/22 03:54:03;;;;;;;14.40;12.33;;;7.50;99.90;;;;;;5055635;28;20553;-46
2021/09/22 03:56:29;;;;;;;13.30;11.47;;;7.50;99.90;;;;;;5055404;28;20178;-45
2021/09/22 03:58:54;;;;;;;14.30;12.80;;;7.50;99.90;;;;;;5055749;28;20166;-46
2021/09/22 04:01:20;;;;;;;14.10;12.50;;;7.50;99.90;;;;;;5056295;28;20273;-46
2021/09/22 04:03:46;;;;;;;13.17;11.70;;;7.50;99.90;;;;;;5038557;28;20286;-46
2021/09/22 04:06:11;;;;;;;14.70;13.20;;;7.50;99.90;;;;;;5056341;28;20261;-46
2021/09/22 04:08:37;;;;;;;15.23;13.63;;;7.50;99.90;;;;;;5057066;28;20603;-46
2021/09/22 04:11:03;;;;;;;14.47;12.93;;;7.40;99.90;;;;;;5056495;28;20198;-46
2021/09/22 04:13:28;;;;;;;15.67;13.80;;;7.50;99.90;;;;;;5056271;28;20166;-46
2021/09/22 04:15:54;;;;;;;15.80;13.40;;;7.50;99.90;;;;;;5057635;28;20439;-47
2021/09/22 04:18:20;;;;;;;14.10;12.63;;;7.50;99.90;;;;;;5057339;28;20184;-46
2021/09/22 04:20:45;;;;;;;15.73;13.43;;;7.50;99.90;;;;;;5057903;28;20189;-47
2021/09/22 04:23:11;;;;;;;14.60;13.10;;;7.50;99.90;;;;;;5057693;28;20200;-46
2021/09/22 04:25:37;;;;;;;14.10;12.20;;;7.40;99.90;;;;;;5057574;28;20212;-46
2021/09/22 04:28:02;;;;;;;16.53;13.40;;;7.40;99.90;;;;;;5055944;28;20580;-46
2021/09/22 04:30:29;;;;;;;14.23;12.73;;;7.40;99.90;;;;;;5056785;28;20222;-46
2021/09/22 04:32:54;;;;;;;14.00;12.53;;;7.40;99.90;;;;;;5057015;28;20196;-46
2021/09/22 04:35:20;;;;;;;15.20;12.93;;;7.30;99.90;;;;;;5056119;28;20400;-47
2021/09/22 04:37:47;;;;;;;14.80;12.93;;;7.30;99.90;;;;;;5055114;28;20231;-46
2021/09/22 04:40:13;;;;;;;14.57;13.07;;;7.30;99.90;;;;;;5038186;28;20595;-46
2021/09/22 04:42:39;;;;;;;16.47;13.27;;;7.30;99.90;;;;;;5056838;28;20527;-46
2021/09/22 04:45:06;;;;;;;17.50;12.80;;;7.30;99.90;;;;;;5057493;28;20435;-46
2021/09/22 04:47:32;;;;;;;14.47;12.93;;;7.30;99.90;;;;;;5057142;28;20182;-46
2021/09/22 04:49:58;;;;;;;16.20;13.50;;;7.30;99.90;;;;;;5039612;28;20555;-47
2021/09/22 04:52:24;;;;;;;15.60;14.00;;;7.30;99.90;;;;;;5056980;28;20185;-46
2021/09/22 04:54:49;;;;;;;15.23;13.60;;;7.30;99.90;;;;;;5055546;28;20413;-46
2021/09/22 04:57:15;;;;;;;15.20;13.50;;;7.20;99.90;;;;;;5055661;28;20424;-47
2021/09/22 04:59:41;;;;;;;16.90;13.80;;;7.20;99.90;;;;;;5060023;28;20259;-46
2021/09/22 05:02:06;;;;;;;14.03;12.50;;;7.30;99.90;;;;;;5060526;28;20296;-46
2021/09/22 05:04:33;;;;;;;14.13;12.53;;;7.30;99.90;;;;;;5060778;28;20178;-46
2021/09/22 05:06:59;;;;;;;14.80;13.30;;;7.30;99.90;;;;;;5060060;28;20273;-46
2021/09/22 05:09:24;;;;;;;15.73;12.83;;;7.30;99.90;;;;;;5042111;28;20567;-46
2021/09/22 05:11:50;;;;;;;15.90;13.90;;;7.30;99.90;;;;;;5040836;28;20178;-46
2021/09/22 05:14:15;;;;;;;14.90;13.33;;;7.30;99.90;;;;;;5057572;28;20195;-46
2021/09/22 05:16:41;;;;;;;15.83;14.13;;;7.30;99.90;;;;;;5057954;28;20190;-46
2021/09/22 05:19:07;;;;;;;16.10;12.83;;;7.30;99.90;;;;;;5057395;28;20193;-46
2021/09/22 05:21:32;;;;;;;16.23;14.00;;;7.30;99.90;;;;;;5057890;28;20185;-47
2021/09/22 05:23:58;;;;;;;16.13;14.43;;;7.20;99.90;;;;;;5058627;28;20174;-46
2021/09/22 05:26:23;;;;;;;17.57;14.40;;;7.30;99.90;;;;;;5060233;28;20193;-47
2021/09/22 05:28:49;;;;;;;15.73;13.97;;;7.30;99.90;;;;;;5078260;28;20233;-46
2021/09/22 05:31:15;;;;;;;14.50;12.70;;;7.30;99.90;;;;;;5077032;28;20622;-46
2021/09/22 05:33:41;;;;;;;14.60;12.23;;;7.40;99.90;;;;;;5078851;28;20177;-47
2021/09/22 05:36:09;;;;;;;15.80;14.20;;;7.40;99.90;;;;;;5060557;28;20472;-47
2021/09/22 05:38:35;;;;;;;16.63;14.93;;;7.50;99.90;;;;;;5060611;28;20420;-47
2021/09/22 05:41:00;;;;;;;15.60;14.00;;;7.50;99.90;;;;;;5075728;28;20419;-47
2021/09/22 05:43:26;;;;;;;14.00;12.50;;;7.60;99.90;;;;;;5068342;28;20189;-46
2021/09/22 05:45:51;;;;;;;15.40;13.80;;;7.60;99.90;;;;;;5072058;28;20552;-46
2021/09/22 05:48:18;;;;;;;15.40;13.33;;;7.70;99.90;;;;;;5075802;28;20267;-46
2021/09/22 05:50:44;;;;;;;15.67;13.80;;;7.80;99.90;;;;;;5074714;28;20201;-46
2021/09/22 05:53:09;;;;;;;15.27;13.57;;;7.80;99.90;;;;;;5075050;28;20430;-47
2021/09/22 05:55:35;;;;;;;13.97;12.47;;;8.00;99.90;;;;;;5057237;28;20641;-47
2021/09/22 05:58:01;;;;;;;14.93;13.33;;;8.10;99.90;;;;;;5075964;28;20188;-47
2021/09/22 06:00:27;;;;;;;15.70;14.13;;;8.20;99.90;;;;;;5058255;28;20178;-46
2021/09/22 06:02:52;;;;;;;14.97;13.40;;;8.30;99.90;;;;;;5077759;28;20185;-46
2021/09/22 06:05:18;;;;;;;21.47;14.10;;;8.40;99.90;;;;;;5060668;28;20717;-46
2021/09/22 06:07:43;;;;;;;14.77;13.10;;;8.60;99.90;;;;;;5077775;28;20191;-46
2021/09/22 06:10:10;;;;;;;13.87;12.50;;;8.70;99.90;;;;;;5057907;28;20625;-46
2021/09/22 06:12:35;;;;;;;18.27;13.70;;;8.80;99.90;;;;;;5077378;28;20194;-46
2021/09/22 06:15:01;;;;;;;14.70;13.20;;;8.90;99.80;;;;;;5060400;28;20485;-47
2021/09/22 06:17:27;;;;;;;15.30;13.67;;;9.10;99.80;;;;;;5060375;28;20286;-46
2021/09/22 06:19:52;;;;;;;19.87;15.03;;;9.20;99.70;;;;;;5078012;28;20190;-47
2021/09/22 06:22:24;;;;;;;17.13;13.60;;;9.40;99.50;;;;;;5044595;28;20522;-46
2021/09/22 06:24:53;;;;;;;15.90;14.30;;;9.60;99.30;;;;;;5056314;28;20182;-56
2021/09/22 06:27:19;;;;;;;15.70;14.03;;;9.70;99.10;;;;;;5056375;28;20544;-46
2021/09/22 06:29:45;;;;;;;14.93;13.37;;;9.90;99.00;;;;;;5056293;28;20785;-47
2021/09/22 06:32:11;;;;;;;15.60;14.00;;;10.10;98.30;;;;;;5056082;28;20471;-46
2021/09/22 06:34:36;;;;;;;17.43;15.00;;;10.30;98.10;;;;;;5053869;28;20583;-47
2021/09/22 06:37:02;;;;;;;15.53;13.77;;;10.50;97.80;;;;;;5055275;28;20269;-46
2021/09/22 06:39:28;;;;;;;16.53;14.47;;;10.80;97.90;;;;;;5055393;28;20195;-47
2021/09/22 06:41:55;;;;;;;16.47;14.70;;;11.00;97.70;;;;;;5056811;28;20447;-46
2021/09/22 06:44:21;;;;;;;14.50;13.00;;;11.30;97.20;;;;;;5076762;28;20427;-46
2021/09/22 06:46:46;;;;;;;16.37;14.70;;;11.50;96.80;;;;;;5077395;28;20837;-46
2021/09/22 06:49:12;;;;;;;16.87;15.07;;;11.70;96.70;;;;;;5068800;28;20549;-46
2021/09/22 06:51:38;;;;;;;16.10;14.50;;;12.00;96.70;;;;;;5056858;28;20497;-46
2021/09/22 06:54:03;;;;;;;17.03;15.20;;;12.20;96.40;;;;;;5057012;28;20285;-46
2021/09/22 06:56:29;;;;;;;17.30;15.40;;;12.40;95.80;;;;;;5056226;28;20184;-46
2021/09/22 06:58:55;;;;;;;16.63;14.93;;;12.70;95.50;;;;;;5057822;28;20183;-46
2021/09/22 07:01:20;;;;;;;18.17;16.27;;;12.80;95.10;;;;;;5056124;28;20201;-47
2021/09/22 07:03:46;;;;;;;18.63;16.67;;;13.10;94.80;;;;;;5056880;28;20182;-46
2021/09/22 07:06:12;;;;;;;17.80;15.90;;;13.20;94.30;;;;;;5057191;28;20460;-47
2021/09/22 07:08:38;;;;;;;16.83;15.13;;;13.40;93.50;;;;;;5056971;28;20265;-47
2021/09/22 07:11:04;;;;;;;17.97;15.97;;;13.70;93.90;;;;;;5056861;28;20465;-47
2021/09/22 07:13:32;;;;;;;19.67;17.67;;;14.00;93.80;;;;;;5070135;28;20419;-47
2021/09/22 07:15:58;;;;;;;18.00;16.13;;;14.50;93.70;;;;;;5076872;28;20806;-46
2021/09/22 07:18:23;;;;;;;18.13;16.23;;;14.90;93.20;;;;;;5077035;28;20407;-46
2021/09/22 07:20:49;;;;;;;16.93;15.13;;;15.40;92.50;;;;;;5076043;28;20834;-46
2021/09/22 07:23:15;;;;;;;16.60;14.90;;;16.00;92.00;;;;;;5076016;28;20200;-46
2021/09/22 07:25:41;;;;;;;18.50;16.67;;;16.50;90.80;;;;;;5075480;28;20417;-46
2021/09/22 07:28:07;;;;;;;17.80;16.10;;;17.00;90.10;;;;;;5076154;28;20183;-46
2021/09/22 07:30:32;;;;;;;19.33;17.33;;;17.20;88.60;;;;;;5075223;28;20475;-46
2021/09/22 07:32:59;;;;;;;20.53;17.53;;;17.60;87.40;;;;;;5075915;28;20512;-47
2021/09/22 07:35:25;;;;;;;17.83;16.13;;;17.80;86.60;;;;;;5076664;28;20187;-46
2021/09/22 07:37:52;;;;;;;18.30;16.30;;;18.00;84.60;;;;;;5077251;28;20529;-46
2021/09/22 07:40:18;;;;;;;20.07;18.00;;;18.40;84.70;;;;;;5077819;28;20423;-46
2021/09/22 07:42:44;;;;;;;18.53;16.63;;;18.70;82.60;;;;;;5077693;28;20733;-46
2021/09/22 07:45:10;;;;;;;17.47;15.93;;;19.10;82.30;;;;;;5077703;28;20488;-46
2021/09/22 07:47:37;;;;;;;17.93;16.30;;;19.20;80.60;;;;;;5077474;28;20496;-46
2021/09/22 07:50:05;;;;;;;19.53;17.43;;;19.40;79.40;;;;;;5076849;28;20517;-46
2021/09/22 07:52:31;;;;;;;19.67;17.53;;;19.70;78.30;;;;;;5077020;28;20726;-47
2021/09/22 07:54:56;;;;;;;17.60;16.00;;;19.90;75.90;;;;;;5077635;28;20446;-46
2021/09/22 07:57:22;;;;;;;19.10;17.30;;;19.60;73.70;;;;;;5077513;28;20415;-46
2021/09/22 07:59:48;;;;;;;17.47;15.87;;;19.50;75.40;;;;;;5059817;28;20358;-46
2021/09/22 08:02:14;;;;;;;15.13;13.63;;;20.10;72.50;;;;;;5076640;28;20543;-46
2021/09/22 08:04:40;;;;;;;13.63;12.23;;;20.30;70.70;;;;;;5075464;28;20204;-46
2021/09/22 08:07:05;;;;;;;12.20;11.10;;;21.00;69.30;;;;;;5075132;28;20177;-46
2021/09/22 08:09:32;;;;;;;13.70;12.50;;;21.60;64.60;;;;;;5073626;28;20217;-47
2021/09/22 08:11:58;;;;;;;11.97;10.97;;;22.10;62.30;;;;;;5072769;28;20362;-48
2021/09/22 08:14:29;;;;;;;12.70;11.53;;;22.40;59.70;;;;;;5072795;28;20474;-47
2021/09/22 08:16:58;;;;;;;12.83;11.70;;;22.60;58.60;;;;;;5072970;28;20400;-48
2021/09/22 08:19:24;;;;;;;12.97;11.67;;;22.80;57.90;;;;;;5073210;28;20447;-47
2021/09/22 08:21:50;;;;;;;12.73;11.53;;;23.30;56.10;;;;;;5075556;28;20524;-47
2021/09/22 08:24:16;;;;;;;12.60;11.50;;;23.60;54.80;;;;;;5075036;28;20445;-46
2021/09/22 08:26:43;;;;;;;11.53;10.53;;;23.80;53.20;;;;;;5073580;28;20845;-46
2021/09/22 08:29:08;;;;;;;11.23;10.23;;;23.70;52.70;;;;;;5073787;28;20315;-46
2021/09/22 08:31:34;;;;;;;10.73;9.73;;;23.90;52.30;;;;;;5074017;28;20970;-46
2021/09/22 08:34:00;;;;;;;12.43;11.43;;;24.00;51.20;;;;;;5073584;28;20521;-47
2021/09/22 08:36:25;;;;;;;11.73;10.63;;;23.80;50.70;;;;;;5075121;28;20188;-46
2021/09/22 08:38:51;;;;;;;12.10;11.07;;;23.60;51.00;;;;;;5074877;28;20215;-46
2021/09/22 08:41:17;;;;;;;11.33;10.33;;;23.60;52.60;;;;;;5075395;28;20214;-46
2021/09/22 08:43:43;;;;;;;11.93;11.03;;;23.70;49.40;;;;;;5075547;28;20269;-46
2021/09/22 08:46:09;;;;;;;12.60;11.30;;;23.40;50.50;;;;;;5074962;28;20727;-47
2021/09/22 08:48:35;;;;;;;10.93;10.03;;;23.40;49.90;;;;;;5074280;28;20199;-46
2021/09/22 08:51:01;;;;;;;11.23;10.10;;;23.50;49.50;;;;;;5075554;28;20623;-46
2021/09/22 08:53:27;;;;;;;10.17;9.27;;;24.20;51.30;;;;;;5073570;28;20424;-47
2021/09/22 08:55:53;;;;;;;11.97;10.97;;;25.20;49.70;;;;;;5073657;28;20482;-47
2021/09/22 08:58:19;;;;;;;10.30;9.50;;;25.90;48.00;;;;;;5074659;28;20477;-47
2021/09/22 09:00:47;;;;;;;11.10;9.90;;;26.80;46.90;;;;;;5075778;28;20830;-47
2021/09/22 09:03:40;;;;;;;10.07;9.20;;;27.50;44.20;;;;;;5074560;28;20814;-47
2021/09/22 09:06:30;;;;;;;10.53;9.73;;;28.20;43.10;;;;;;5075022;28;20867;-47
2021/09/22 09:08:57;;;;;;;12.03;10.90;;;28.20;42.80;;;;;;5073813;28;20410;-47
2021/09/22 09:11:24;;;;;;;11.30;10.20;;;28.00;40.90;;;;;;5074135;28;20474;-47
2021/09/22 09:13:53;;;;;;;9.93;8.93;;;27.40;40.30;;;;;;5073941;28;20517;-47
2021/09/22 09:16:19;;;;;;;9.50;8.60;;;27.00;41.10;;;;;;5074775;28;20427;-47
2021/09/22 09:18:54;;;;;;;9.00;8.20;;;26.60;41.10;;;;;;5075148;28;20416;-47
2021/09/22 09:21:21;;;;;;;9.10;8.30;;;26.80;40.80;;;;;;5074682;28;20429;-47
2021/09/22 09:23:52;;;;;;;8.73;8.03;;;27.20;41.10;;;;;;5074901;28;20503;-48
2021/09/22 09:26:29;;;;;;;8.47;7.73;;;27.30;40.60;;;;;;5060388;28;20445;-48
2021/09/22 09:28:57;;;;;;;9.10;8.30;;;27.60;41.40;;;;;;5054728;28;20464;-49
2021/09/22 09:31:30;;;;;;;8.83;8.17;;;27.90;39.60;;;;;;5054765;28;20758;-48
2021/09/22 09:33:57;;;;;;;8.20;7.50;;;27.80;39.30;;;;;;5055765;28;20877;-49
2021/09/22 09:36:30;;;;;;;8.07;7.37;;;27.90;39.40;;;;;;5055790;28;20992;-48
2021/09/22 09:39:13;;;;;;;7.77;7.07;;;27.10;37.80;;;;;;5056234;28;20485;-48
2021/09/22 09:41:41;;;;;;;7.20;6.43;;;26.30;39.10;;;;;;5056122;28;20447;-48
2021/09/22 09:44:10;;;;;;;9.03;8.13;;;26.60;41.10;;;;;;5073685;28;20718;-48
2021/09/22 09:46:37;;;;;;;8.68;7.97;;;27.40;41.00;;;;;;5074717;28;20426;-48
2021/09/22 09:49:06;;;;;;;6.67;6.07;;;28.00;38.50;;;;;;5075137;28;20171;-42
2021/09/22 09:51:38;;;;;;;7.20;6.60;;;27.90;38.30;;;;;;5075443;28;20477;-42
2021/09/22 09:54:24;;;;;;;6.20;5.70;;;28.30;38.20;;;;;;5076737;28;20474;-41
2021/09/22 09:56:53;;;;;;;8.10;7.33;;;28.50;39.30;;;;;;5076833;28;20551;-43
2021/09/22 09:59:20;;;;;;;7.90;7.20;;;28.70;38.30;;;;;;5076662;28;20423;-41
2021/09/22 10:01:48;;;;;;;6.82;6.32;;;28.90;38.20;;;;;;5060463;28;20423;-41
2021/09/22 10:04:19;;;;;;;6.15;5.65;;;29.10;38.80;;;;;;5078104;28;20172;-43
2021/09/22 10:06:46;;;;;;;6.20;5.70;;;29.30;37.10;;;;;;5078625;28;20184;-44
2021/09/22 10:09:12;;;;;;;8.20;6.17;;;29.70;38.00;;;;;;5077210;28;20419;-40
2021/09/22 10:11:39;;;;;;;6.80;6.30;;;30.30;37.10;;;;;;5078845;28;20447;-40
2021/09/22 10:14:06;;;;;;;7.13;6.53;;;31.20;35.20;;;;;;5077506;28;20394;-41
2021/09/22 10:16:33;;;;;;;5.77;5.27;;;31.30;34.10;;;;;;5077573;28;20424;-40
2021/09/22 10:19:00;;;;;;;5.50;5.10;;;31.00;34.20;;;;;;5059000;28;20388;-45
2021/09/22 10:21:26;;;;;;;5.93;5.37;;;30.70;34.30;;;;;;5077452;28;20846;-41
2021/09/22 10:23:54;;;;;;;6.53;5.90;;;31.10;36.00;;;;;;5076435;28;20808;-38
2021/09/22 10:26:20;;;;;;;4.87;4.37;;;31.50;33.50;;;;;;5076515;28;20474;-41
2021/09/22 10:28:46;;;;;;;5.70;3.40;;;31.40;33.50;;;;;;5062452;28;20446;-41
2021/09/22 10:31:21;;;;;;;4.77;4.47;;;31.70;35.40;;;;;;5097436;28;20593;-42
2021/09/22 10:33:47;;;;;;;4.97;4.57;;;32.70;32.90;;;;;;5097726;28;20417;-43
2021/09/22 10:36:15;;;;;;;5.37;4.80;;;33.00;34.10;;;;;;5089961;28;20438;-38
2021/09/22 10:38:48;;;;;;;5.27;3.90;;;33.90;32.90;;;;;;5073402;28;20503;-40
2021/09/22 10:41:26;;;;;;;4.30;3.90;;;34.60;31.00;;;;;;5075199;28;20413;-40
2021/09/22 10:43:52;;;;;;;4.60;4.30;;;33.90;31.00;;;;;;5091366;28;20410;-39
2021/09/22 10:46:19;;;;;;;4.63;3.80;;;32.90;31.90;;;;;;5095954;28;20799;-42
2021/09/22 10:48:50;;;;;;;5.15;4.65;;;32.30;32.30;;;;;;5095666;28;20457;-43
2021/09/22 10:51:31;;;;;;;8.03;5.20;;;32.00;32.70;;;;;;5094862;28;20322;-42
2021/09/22 10:54:03;;;;;;;4.60;4.30;;;32.30;33.10;;;;;;5090101;28;20422;-41
2021/09/22 10:56:29;;;;;;;5.50;3.90;;;32.80;33.50;;;;;;5095417;28;20409;-42
2021/09/22 10:58:59;;;;;;;3.87;3.57;;;33.30;32.10;;;;;;5097888;28;20521;-45
2021/09/22 11:01:41;;;;;;;4.60;4.20;;;34.10;31.70;;;;;;5097092;28;20239;-40
2021/09/22 11:04:11;;;;;;;5.43;4.93;;;34.10;31.30;;;;;;5096880;28;20416;-39
2021/09/22 11:06:48;;;;;;;6.43;4.70;;;33.00;31.60;;;;;;5094092;28;20456;-42
2021/09/22 11:09:17;;;;;;;6.40;5.90;;;32.60;32.60;;;;;;5096511;28;20442;-42
2021/09/22 11:12:03;;;;;;;5.80;5.17;;;32.80;33.00;;;;;;5095097;28;20844;-40
2021/09/22 11:14:42;;;;;;;5.87;5.37;;;34.10;33.70;;;;;;5072350;28;20378;-43
2021/09/22 11:17:12;;;;;;;7.07;5.20;;;34.90;31.90;;;;;;5073350;28;20673;-41
2021/09/22 11:19:40;;;;;;;4.60;4.20;;;36.00;31.90;;;;;;5073434;28;20736;-41
2021/09/22 11:22:14;;;;;;;5.00;4.20;;;37.30;31.60;;;;;;5073427;28;20667;-41
2021/09/22 11:24:41;;;;;;;4.97;4.10;;;38.10;30.60;;;;;;5074381;28;20583;-44
2021/09/22 11:27:16;;;;;;;4.43;3.90;;;38.30;29.60;;;;;;5074401;28;20398;-41
2021/09/22 11:29:47;;;;;;;4.97;3.43;;;39.20;29.50;;;;;;5063528;28;20863;-45
2021/09/22 11:32:30;;;;;;;4.00;3.60;;;39.80;28.80;;;;;;5055638;28;20428;-42
2021/09/22 11:35:14;;;;;;;4.33;3.90;;;39.70;27.70;;;;;;5055803;28;20400;-42
2021/09/22 11:37:47;;;;;;;4.70;4.30;;;39.50;27.60;;;;;;5036151;28;20419;-40
2021/09/22 11:40:20;;;;;;;4.00;3.70;;;39.20;27.70;;;;;;5052744;28;20404;-41
2021/09/22 11:43:09;;;;;;;3.67;3.37;;;38.90;28.60;;;;;;5053563;28;20396;-40
2021/09/22 11:45:49;;;;;;;6.23;3.27;;;39.20;28.10;;;;;;5053784;28;20514;-40
2021/09/22 11:48:17;;;;;;;3.63;3.20;;;39.00;28.40;;;;;;5053509;28;20415;-45
2021/09/22 11:50:47;;;;;;;3.40;3.13;;;39.20;28.10;;;;;;5052469;28;20818;-43
2021/09/22 11:53:21;;;;;;;4.00;3.70;;;39.30;27.20;;;;;;5054776;28;20895;-41
2021/09/22 11:55:47;;;;;;;5.57;3.73;;;38.40;27.50;;;;;;5054941;28;20185;-39
2021/09/22 11:58:16;;;;;;;6.00;4.13;;;37.30;28.10;;;;;;5053400;28;20412;-41
2021/09/22 12:00:43;;;;;;;5.57;4.57;;;36.70;28.40;;;;;;5052458;28;20501;-39
2021/09/22 12:03:11;;;;;;;6.20;5.80;;;36.20;29.40;;;;;;5052931;28;20420;-40
2021/09/22 12:05:38;;;;;;;6.10;5.60;;;35.50;29.40;;;;;;5054962;28;20432;-39
2021/09/22 12:08:05;;;;;;;5.40;5.00;;;35.10;29.80;;;;;;5052277;28;20531;-40
2021/09/22 12:10:32;;;;;;;4.93;4.43;;;34.50;30.00;;;;;;5036079;28;20511;-41
2021/09/22 12:13:04;;;;;;;3.93;3.60;;;34.40;30.70;;;;;;5052340;28;20806;-41
2021/09/22 12:15:31;;;;;;;5.27;4.77;;;34.70;32.10;;;;;;5053267;28;20420;-42
2021/09/22 12:17:57;;;;;;;4.23;3.93;;;35.20;30.40;;;;;;5053226;28;20982;-41
2021/09/22 12:20:28;;;;;;;5.33;4.93;;;35.90;31.30;;;;;;5053169;28;20436;-40
2021/09/22 12:23:03;;;;;;;5.30;4.90;;;36.40;29.80;;;;;;5053870;28;20220;-42
2021/09/22 12:25:35;;;;;;;5.87;5.27;;;36.20;30.00;;;;;;5036207;28;20438;-41
2021/09/22 12:28:02;;;;;;;4.70;4.40;;;35.90;29.60;;;;;;5053437;28;20412;-40
2021/09/22 12:30:36;;;;;;;5.17;4.77;;;35.20;30.30;;;;;;5051479;28;20561;-39
2021/09/22 12:33:07;;;;;;;5.50;5.10;;;34.50;31.40;;;;;;5053857;28;20397;-41
2021/09/22 12:35:50;;;;;;;5.40;4.90;;;34.30;30.80;;;;;;5053273;28;20797;-39
2021/09/22 12:38:18;;;;;;;4.83;4.53;;;33.40;31.30;;;;;;5053432;28;20515;-44
2021/09/22 12:40:50;;;;;;;5.10;4.70;;;32.90;31.10;;;;;;5052766;28;20868;-39